createdAt,value
2023-04-01T00:00:39.540Z,983.33
2023-04-01T00:01:39.562Z,983.28
2023-04-01T00:02:39.584Z,983.29
2023-04-01T00:03:39.674Z,983.28
2023-04-01T00:04:39.583Z,983.35
2023-04-01T00:05:39.490Z,983.30
2023-04-01T00:06:39.504Z,983.25
2023-04-01T00:07:39.484Z,983.30
2023-04-01T00:08:39.480Z,983.31
2023-04-01T00:09:39.473Z,983.30
2023-04-01T00:10:39.468Z,983.32
2023-04-01T00:11:39.453Z,983.26
2023-04-01T00:12:39.445Z,983.27
2023-04-01T00:13:39.457Z,983.28
2023-04-01T00:14:39.450Z,983.29
2023-04-01T00:15:39.417Z,983.27
2023-04-01T00:16:39.423Z,983.29
2023-04-01T00:17:39.989Z,983.25
2023-04-01T00:18:39.441Z,983.28
2023-04-01T00:19:39.521Z,983.28
2023-04-01T00:20:39.393Z,983.29
2023-04-01T00:21:39.384Z,983.28
2023-04-01T00:22:39.386Z,983.27
2023-04-01T00:23:39.377Z,983.25
2023-04-01T00:24:39.403Z,983.29
2023-04-01T00:25:39.454Z,983.23
2023-04-01T00:26:39.361Z,983.24
2023-04-01T00:27:39.338Z,983.27
2023-04-01T00:28:39.412Z,983.25
2023-04-01T00:29:39.344Z,983.38
2023-04-01T00:30:39.317Z,983.32
2023-04-01T00:31:39.420Z,983.27
2023-04-01T00:32:39.356Z,983.24
2023-04-01T00:33:39.660Z,983.28
2023-04-01T00:34:39.329Z,983.27
2023-04-01T00:35:39.339Z,983.27
2023-04-01T00:36:39.330Z,983.25
2023-04-01T00:37:39.884Z,983.18
2023-04-01T00:38:39.910Z,983.22
2023-04-01T00:39:39.325Z,983.17
2023-04-01T00:40:39.972Z,983.23
2023-04-01T00:41:40.096Z,983.19
2023-04-01T00:42:40.056Z,983.21
2023-04-01T00:43:40.135Z,983.22
2023-04-01T00:44:40.071Z,983.13
2023-04-01T00:45:40.224Z,983.14
2023-04-01T00:46:39.397Z,983.15
2023-04-01T00:47:39.377Z,983.19
2023-04-01T00:48:39.395Z,983.14
2023-04-01T00:49:39.376Z,983.10
2023-04-01T00:50:40.653Z,983.14
2023-04-01T00:51:39.456Z,983.12
2023-04-01T00:52:39.173Z,983.13
2023-04-01T00:53:39.666Z,983.09
2023-04-01T00:54:39.181Z,983.08
2023-04-01T00:55:39.913Z,983.13
2023-04-01T00:56:39.839Z,983.13
2023-04-01T00:57:39.841Z,983.09
2023-04-01T00:58:39.905Z,983.12
2023-04-01T00:59:40.060Z,983.11
2023-04-01T01:00:39.143Z,983.01
2023-04-01T01:01:39.108Z,983.10
2023-04-01T01:02:39.221Z,983.04
2023-04-01T01:03:39.101Z,983.05
2023-04-01T01:04:39.253Z,982.99
2023-04-01T01:05:48.601Z,983.05
2023-04-01T01:06:39.269Z,983.05
2023-04-01T01:07:39.280Z,983.05
2023-04-01T01:08:39.340Z,983.07
2023-04-01T01:09:39.499Z,983.04
2023-04-01T01:10:39.509Z,983.07
2023-04-01T01:11:43.688Z,983.07
2023-04-01T01:12:39.527Z,983.06
2023-04-01T01:13:39.580Z,983.03
2023-04-01T01:14:39.577Z,983.06
2023-04-01T01:15:39.746Z,983.08
2023-04-01T01:16:39.026Z,983.03
2023-04-01T01:17:39.020Z,983.01
2023-04-01T01:18:38.993Z,983.08
2023-04-01T01:19:39.004Z,983.06
2023-04-01T01:20:39.010Z,983.06
2023-04-01T01:21:39.026Z,983.10
2023-04-01T01:22:38.972Z,983.05
2023-04-01T01:23:38.977Z,983.07
2023-04-01T01:24:38.986Z,983.05
2023-04-01T01:25:38.989Z,983.03
2023-04-01T01:26:38.996Z,983.02
2023-04-01T01:27:39.010Z,983.11
2023-04-01T01:28:39.010Z,983.01
2023-04-01T01:29:39.018Z,983.04
2023-04-01T01:30:38.947Z,983.05
2023-04-01T01:31:38.914Z,983.06
2023-04-01T01:32:38.949Z,983.00
2023-04-01T01:33:38.885Z,983.02
2023-04-01T01:34:38.906Z,983.03
2023-04-01T01:35:38.918Z,982.95
2023-04-01T01:36:38.886Z,982.98
2023-04-01T01:37:38.901Z,983.03
2023-04-01T01:38:38.868Z,983.01
2023-04-01T01:39:38.859Z,983.01
2023-04-01T01:40:38.855Z,983.02
2023-04-01T01:41:38.831Z,982.96
2023-04-01T01:42:38.814Z,982.98
2023-04-01T01:43:38.807Z,982.98
2023-04-01T01:44:38.805Z,982.99
2023-04-01T01:45:38.812Z,982.98
2023-04-01T01:46:38.811Z,982.96
2023-04-01T01:47:39.171Z,982.93
2023-04-01T01:48:38.776Z,982.94
2023-04-01T01:49:38.776Z,982.84
2023-04-01T01:50:38.789Z,982.93
2023-04-01T01:51:39.377Z,982.96
2023-04-01T01:52:39.426Z,982.87
2023-04-01T01:53:38.764Z,982.89
2023-04-01T01:54:38.982Z,982.84
2023-04-01T01:55:39.407Z,982.91
2023-04-01T01:56:39.403Z,982.89
2023-04-01T01:57:39.416Z,982.93
2023-04-01T01:58:38.748Z,982.95
2023-04-01T01:59:39.010Z,982.90
2023-04-01T02:00:38.817Z,982.89
2023-04-01T02:01:39.530Z,982.88
2023-04-01T02:02:39.484Z,982.94
2023-04-01T02:03:39.518Z,982.90
2023-04-01T02:04:39.299Z,982.96
2023-04-01T02:05:39.511Z,982.92
2023-04-01T02:06:38.686Z,982.96
2023-04-01T02:07:39.070Z,982.95
2023-04-01T02:08:38.884Z,982.97
2023-04-01T02:09:39.287Z,983.00
2023-04-01T02:10:39.341Z,982.94
2023-04-01T02:11:38.898Z,982.98
2023-04-01T02:12:39.542Z,982.97
2023-04-01T02:13:38.733Z,982.95
2023-04-01T02:14:38.741Z,982.95
2023-04-01T02:15:39.564Z,983.02
2023-04-01T02:16:38.592Z,982.92
2023-04-01T02:17:38.613Z,982.96
2023-04-01T02:18:38.564Z,983.00
2023-04-01T02:19:38.586Z,983.02
2023-04-01T02:20:38.752Z,982.95
2023-04-01T02:21:38.554Z,982.99
2023-04-01T02:22:38.786Z,982.93
2023-04-01T02:23:38.858Z,982.95
2023-04-01T02:24:38.786Z,983.00
2023-04-01T02:25:38.604Z,982.98
2023-04-01T02:26:38.602Z,982.98
2023-04-01T02:27:38.619Z,982.99
2023-04-01T02:28:38.615Z,982.98
2023-04-01T02:29:38.822Z,983.01
2023-04-01T02:30:38.828Z,982.95
2023-04-01T02:31:38.862Z,982.97
2023-04-01T02:32:38.651Z,982.95
2023-04-01T02:33:38.842Z,982.92
2023-04-01T02:34:39.088Z,982.94
2023-04-01T02:35:38.774Z,982.90
2023-04-01T02:36:39.111Z,982.77
2023-04-01T02:37:40.356Z,982.89
2023-04-01T02:38:38.867Z,982.88
2023-04-01T02:39:38.466Z,982.90
2023-04-01T02:40:39.081Z,982.88
2023-04-01T02:41:39.332Z,982.89
2023-04-01T02:42:38.487Z,982.91
2023-04-01T02:43:39.139Z,982.92
2023-04-01T02:44:38.496Z,982.92
2023-04-01T02:45:39.457Z,982.88
2023-04-01T02:46:39.421Z,982.94
2023-04-01T02:47:38.946Z,982.93
2023-04-01T02:48:38.418Z,982.90
2023-04-01T02:49:38.445Z,982.93
2023-04-01T02:50:39.232Z,982.95
2023-04-01T02:51:39.388Z,982.98
2023-04-01T02:52:39.175Z,982.95
2023-04-01T02:53:38.362Z,982.99
2023-04-01T02:54:38.364Z,982.94
2023-04-01T02:55:38.379Z,983.04
2023-04-01T02:56:38.330Z,982.96
2023-04-01T02:57:38.390Z,982.95
2023-04-01T02:58:38.397Z,983.01
2023-04-01T02:59:38.613Z,983.00
2023-04-01T03:00:38.612Z,982.99
2023-04-01T03:01:38.660Z,982.99
2023-04-01T03:02:38.751Z,982.94
2023-04-01T03:03:38.339Z,982.95
2023-04-01T03:04:38.845Z,983.06
2023-04-01T03:05:38.646Z,982.97
2023-04-01T03:06:38.655Z,982.99
2023-04-01T03:07:38.274Z,983.04
2023-04-01T03:08:39.048Z,983.04
2023-04-01T03:09:38.539Z,983.00
2023-04-01T03:10:38.678Z,983.05
2023-04-01T03:11:38.695Z,982.99
2023-04-01T03:12:39.118Z,982.96
2023-04-01T03:13:38.430Z,983.05
2023-04-01T03:14:38.915Z,983.00
2023-04-01T03:15:38.306Z,983.05
2023-04-01T03:16:38.360Z,983.08
2023-04-01T03:17:38.387Z,983.05
2023-04-01T03:18:38.307Z,983.04
2023-04-01T03:19:38.370Z,983.08
2023-04-01T03:20:38.363Z,983.00
2023-04-01T03:21:38.366Z,983.00
2023-04-01T03:22:38.890Z,982.97
2023-04-01T03:23:38.157Z,983.02
2023-04-01T03:24:38.167Z,983.01
2023-04-01T03:25:38.590Z,982.97
2023-04-01T03:26:38.601Z,983.03
2023-04-01T03:27:38.605Z,983.00
2023-04-01T03:28:38.834Z,982.99
2023-04-01T03:29:38.129Z,983.04
2023-04-01T03:30:38.076Z,983.00
2023-04-01T03:31:38.072Z,983.01
2023-04-01T03:32:38.081Z,982.95
2023-04-01T03:33:38.048Z,983.00
2023-04-01T03:34:38.116Z,983.01
2023-04-01T03:35:38.036Z,983.04
2023-04-01T03:36:38.141Z,983.04
2023-04-01T03:37:38.054Z,983.01
2023-04-01T03:38:38.085Z,982.98
2023-04-01T03:39:38.169Z,983.02
2023-04-01T03:40:38.072Z,982.98
2023-04-01T03:41:38.075Z,983.00
2023-04-01T03:42:38.241Z,982.99
2023-04-01T03:43:38.096Z,983.04
2023-04-01T03:44:38.249Z,983.00
2023-04-01T03:45:38.258Z,983.04
2023-04-01T03:46:38.321Z,983.01
2023-04-01T03:47:38.326Z,983.00
2023-04-01T03:48:38.306Z,983.11
2023-04-01T03:49:38.325Z,983.03
2023-04-01T03:50:37.910Z,983.05
2023-04-01T03:51:38.348Z,983.07
2023-04-01T03:52:38.142Z,983.08
2023-04-01T03:53:37.968Z,983.08
2023-04-01T03:54:38.381Z,983.06
2023-04-01T03:55:38.165Z,983.09
2023-04-01T03:56:37.971Z,983.11
2023-04-01T03:57:38.390Z,983.07
2023-04-01T03:58:38.399Z,983.07
2023-04-01T03:59:37.863Z,983.10
2023-04-01T04:00:37.878Z,983.09
2023-04-01T04:01:38.214Z,983.07
2023-04-01T04:02:37.944Z,983.13
2023-04-01T04:03:37.945Z,983.02
2023-04-01T04:04:37.876Z,983.11
2023-04-01T04:05:37.822Z,983.01
2023-04-01T04:06:37.837Z,982.96
2023-04-01T04:07:37.866Z,983.10
2023-04-01T04:08:37.870Z,983.08
2023-04-01T04:09:37.862Z,983.08
2023-04-01T04:10:37.868Z,983.10
2023-04-01T04:11:37.877Z,983.09
2023-04-01T04:12:37.779Z,983.08
2023-04-01T04:13:37.946Z,983.07
2023-04-01T04:14:38.117Z,983.08
2023-04-01T04:15:38.076Z,983.08
2023-04-01T04:16:38.113Z,983.06
2023-04-01T04:17:37.940Z,983.11
2023-04-01T04:18:38.120Z,983.07
2023-04-01T04:19:38.123Z,983.13
2023-04-01T04:20:38.131Z,983.02
2023-04-01T04:21:38.130Z,983.03
2023-04-01T04:22:37.748Z,983.04
2023-04-01T04:23:38.145Z,983.04
2023-04-01T04:24:37.742Z,983.10
2023-04-01T04:25:37.957Z,983.04
2023-04-01T04:26:38.178Z,982.99
2023-04-01T04:27:37.974Z,982.93
2023-04-01T04:28:38.177Z,983.02
2023-04-01T04:29:38.201Z,983.07
2023-04-01T04:30:38.211Z,983.07
2023-04-01T04:31:37.643Z,983.14
2023-04-01T04:32:38.004Z,983.06
2023-04-01T04:33:38.208Z,983.09
2023-04-01T04:34:38.224Z,983.05
2023-04-01T04:35:37.630Z,983.06
2023-04-01T04:36:37.832Z,983.09
2023-04-01T04:37:37.661Z,983.06
2023-04-01T04:38:37.604Z,983.11
2023-04-01T04:39:38.048Z,983.04
2023-04-01T04:40:38.057Z,983.11
2023-04-01T04:41:37.753Z,983.15
2023-04-01T04:42:37.662Z,983.17
2023-04-01T04:43:37.666Z,983.16
2023-04-01T04:44:37.676Z,983.20
2023-04-01T04:45:37.675Z,983.22
2023-04-01T04:46:37.607Z,983.16
2023-04-01T04:47:37.933Z,983.26
2023-04-01T04:48:37.897Z,983.17
2023-04-01T04:49:37.911Z,983.19
2023-04-01T04:50:37.936Z,983.19
2023-04-01T04:51:38.129Z,983.22
2023-04-01T04:52:37.727Z,983.24
2023-04-01T04:53:37.951Z,983.20
2023-04-01T04:54:37.771Z,983.22
2023-04-01T04:55:38.356Z,983.29
2023-04-01T04:56:38.375Z,983.30
2023-04-01T04:57:37.543Z,983.30
2023-04-01T04:58:37.657Z,983.24
2023-04-01T04:59:37.790Z,983.25
2023-04-01T05:00:37.460Z,983.29
2023-04-01T05:01:37.661Z,983.29
2023-04-01T05:02:37.666Z,983.36
2023-04-01T05:03:37.650Z,983.41
2023-04-01T05:04:37.722Z,983.36
2023-04-01T05:05:37.721Z,983.34
2023-04-01T05:06:37.396Z,983.33
2023-04-01T05:07:37.402Z,983.41
2023-04-01T05:08:37.611Z,983.38
2023-04-01T05:09:37.873Z,983.37
2023-04-01T05:10:38.050Z,983.37
2023-04-01T05:11:37.843Z,983.38
2023-04-01T05:12:38.074Z,983.40
2023-04-01T05:13:37.648Z,983.36
2023-04-01T05:14:38.107Z,983.45
2023-04-01T05:15:38.084Z,983.40
2023-04-01T05:16:37.354Z,983.43
2023-04-01T05:17:37.356Z,983.43
2023-04-01T05:18:37.351Z,983.38
2023-04-01T05:19:37.307Z,983.37
2023-04-01T05:20:37.499Z,983.41
2023-04-01T05:21:37.287Z,983.37
2023-04-01T05:22:37.710Z,983.39
2023-04-01T05:23:37.266Z,983.43
2023-04-01T05:24:37.317Z,983.39
2023-04-01T05:25:37.521Z,983.45
2023-04-01T05:26:37.333Z,983.41
2023-04-01T05:27:37.239Z,983.45
2023-04-01T05:28:37.352Z,983.44
2023-04-01T05:29:37.237Z,983.45
2023-04-01T05:30:37.382Z,983.44
2023-04-01T05:31:37.354Z,983.44
2023-04-01T05:32:37.255Z,983.44
2023-04-01T05:33:37.189Z,983.45
2023-04-01T05:34:37.386Z,983.44
2023-04-01T05:35:37.218Z,983.43
2023-04-01T05:36:37.396Z,983.45
2023-04-01T05:37:37.405Z,983.43
2023-04-01T05:38:37.397Z,983.47
2023-04-01T05:39:37.409Z,983.46
2023-04-01T05:40:37.192Z,983.47
2023-04-01T05:41:37.425Z,983.50
2023-04-01T05:42:38.452Z,983.56
2023-04-01T05:43:37.442Z,983.51
2023-04-01T05:44:37.442Z,983.56
2023-04-01T05:45:37.238Z,983.47
2023-04-01T05:46:37.593Z,983.49
2023-04-01T05:47:37.225Z,983.47
2023-04-01T05:48:37.505Z,983.48
2023-04-01T05:49:37.096Z,983.50
2023-04-01T05:50:37.129Z,983.56
2023-04-01T05:51:37.112Z,983.57
2023-04-01T05:52:37.125Z,983.57
2023-04-01T05:53:37.100Z,983.60
2023-04-01T05:54:37.132Z,983.56
2023-04-01T05:55:37.342Z,983.64
2023-04-01T05:56:37.325Z,983.61
2023-04-01T05:57:37.386Z,983.58
2023-04-01T05:58:37.120Z,983.58
2023-04-01T05:59:37.336Z,983.55
2023-04-01T06:00:37.153Z,983.59
2023-04-01T06:01:37.555Z,983.62
2023-04-01T06:02:37.623Z,983.63
2023-04-01T06:03:37.159Z,983.60
2023-04-01T06:04:37.872Z,983.60
2023-04-01T06:05:37.214Z,983.62
2023-04-01T06:06:37.579Z,983.62
2023-04-01T06:07:37.188Z,983.61
2023-04-01T06:08:37.603Z,983.65
2023-04-01T06:09:37.787Z,983.67
2023-04-01T06:10:37.819Z,983.61
2023-04-01T06:11:36.965Z,983.64
2023-04-01T06:12:37.430Z,983.61
2023-04-01T06:13:37.478Z,983.65
2023-04-01T06:14:37.822Z,983.68
2023-04-01T06:15:37.898Z,983.67
2023-04-01T06:16:37.097Z,983.69
2023-04-01T06:17:37.301Z,983.68
2023-04-01T06:18:37.926Z,983.68
2023-04-01T06:19:37.853Z,983.67
2023-04-01T06:20:37.326Z,983.68
2023-04-01T06:21:36.865Z,983.68
2023-04-01T06:22:36.870Z,983.65
2023-04-01T06:23:37.739Z,983.69
2023-04-01T06:24:37.094Z,983.74
2023-04-01T06:25:37.505Z,983.71
2023-04-01T06:26:37.504Z,983.69
2023-04-01T06:27:36.916Z,983.76
2023-04-01T06:28:36.908Z,983.75
2023-04-01T06:29:36.929Z,983.74
2023-04-01T06:30:36.929Z,983.72
2023-04-01T06:31:37.022Z,983.75
2023-04-01T06:32:37.035Z,983.67
2023-04-01T06:33:36.943Z,983.67
2023-04-01T06:34:37.159Z,983.64
2023-04-01T06:35:37.047Z,983.68
2023-04-01T06:36:37.224Z,983.66
2023-04-01T06:37:37.252Z,983.69
2023-04-01T06:38:36.771Z,983.74
2023-04-01T06:39:37.187Z,983.73
2023-04-01T06:40:37.407Z,983.74
2023-04-01T06:41:37.462Z,983.72
2023-04-01T06:42:37.475Z,983.70
2023-04-01T06:43:36.724Z,983.74
2023-04-01T06:44:36.771Z,983.65
2023-04-01T06:45:37.144Z,983.69
2023-04-01T06:46:36.705Z,983.71
2023-04-01T06:47:36.707Z,983.78
2023-04-01T06:48:36.702Z,983.76
2023-04-01T06:49:37.074Z,983.73
2023-04-01T06:50:37.080Z,983.80
2023-04-01T06:51:36.916Z,983.78
2023-04-01T06:52:37.125Z,983.73
2023-04-01T06:53:37.303Z,983.74
2023-04-01T06:54:37.350Z,983.75
2023-04-01T06:55:37.513Z,983.79
2023-04-01T06:56:37.562Z,983.76
2023-04-01T06:57:36.748Z,983.74
2023-04-01T06:58:36.691Z,983.80
2023-04-01T06:59:37.586Z,983.82
2023-04-01T07:00:36.819Z,983.83
2023-04-01T07:01:37.163Z,983.86
2023-04-01T07:02:36.605Z,983.83
2023-04-01T07:03:36.576Z,983.84
2023-04-01T07:04:36.644Z,983.89
2023-04-01T07:05:36.580Z,983.84
2023-04-01T07:06:36.608Z,983.87
2023-04-01T07:07:36.760Z,983.84
2023-04-01T07:08:36.764Z,983.88
2023-04-01T07:09:36.767Z,983.87
2023-04-01T07:10:36.778Z,983.86
2023-04-01T07:11:36.848Z,983.82
2023-04-01T07:12:36.866Z,983.91
2023-04-01T07:13:36.997Z,983.86
2023-04-01T07:14:36.606Z,983.82
2023-04-01T07:15:36.663Z,983.86
2023-04-01T07:16:37.086Z,983.86
2023-04-01T07:17:37.141Z,983.90
2023-04-01T07:18:37.915Z,983.91
2023-04-01T07:19:36.898Z,983.92
2023-04-01T07:20:36.498Z,983.89
2023-04-01T07:21:37.293Z,983.90
2023-04-01T07:22:37.328Z,983.91
2023-04-01T07:23:36.454Z,983.91
2023-04-01T07:24:37.067Z,983.96
2023-04-01T07:25:37.479Z,983.92
2023-04-01T07:26:37.309Z,983.98
2023-04-01T07:27:36.476Z,983.95
2023-04-01T07:28:36.684Z,983.95
2023-04-01T07:29:36.887Z,983.92
2023-04-01T07:30:37.432Z,983.97
2023-04-01T07:31:36.409Z,983.93
2023-04-01T07:32:36.536Z,983.93
2023-04-01T07:33:36.391Z,983.90
2023-04-01T07:34:36.548Z,984.02
2023-04-01T07:35:36.539Z,984.00
2023-04-01T07:36:36.335Z,984.01
2023-04-01T07:37:36.618Z,983.95
2023-04-01T07:38:36.811Z,984.02
2023-04-01T07:39:36.775Z,984.03
2023-04-01T07:40:36.788Z,984.02
2023-04-01T07:41:36.296Z,984.00
2023-04-01T07:42:36.324Z,984.04
2023-04-01T07:43:36.298Z,984.07
2023-04-01T07:44:36.288Z,984.08
2023-04-01T07:45:36.564Z,984.05
2023-04-01T07:46:36.348Z,984.05
2023-04-01T07:47:36.388Z,984.04
2023-04-01T07:48:36.383Z,984.13
2023-04-01T07:49:36.403Z,984.11
2023-04-01T07:50:36.245Z,984.12
2023-04-01T07:51:36.427Z,984.13
2023-04-01T07:52:36.444Z,984.14
2023-04-01T07:53:36.449Z,984.14
2023-04-01T07:54:36.207Z,984.11
2023-04-01T07:55:36.488Z,984.09
2023-04-01T07:56:36.462Z,984.14
2023-04-01T07:57:36.468Z,984.09
2023-04-01T07:58:36.180Z,984.13
2023-04-01T07:59:36.172Z,984.11
2023-04-01T08:00:36.488Z,984.15
2023-04-01T08:01:36.497Z,984.16
2023-04-01T08:02:36.429Z,984.20
2023-04-01T08:03:36.300Z,984.15
2023-04-01T08:04:36.371Z,984.16
2023-04-01T08:05:36.278Z,984.14
2023-04-01T08:06:36.121Z,984.18
2023-04-01T08:07:36.109Z,984.25
2023-04-01T08:08:36.106Z,984.18
2023-04-01T08:09:36.145Z,984.18
2023-04-01T08:10:36.141Z,984.19
2023-04-01T08:11:36.145Z,984.25
2023-04-01T08:12:36.153Z,984.28
2023-04-01T08:13:36.163Z,984.25
2023-04-01T08:14:36.057Z,984.31
2023-04-01T08:15:36.128Z,984.31
2023-04-01T08:16:36.088Z,984.35
2023-04-01T08:17:36.092Z,984.36
2023-04-01T08:18:36.058Z,984.37
2023-04-01T08:19:36.078Z,984.40
2023-04-01T08:20:36.028Z,984.39
2023-04-01T08:21:36.026Z,984.39
2023-04-01T08:22:36.014Z,984.44
2023-04-01T08:23:36.038Z,984.44
2023-04-01T08:24:46.510Z,984.45
2023-04-01T08:25:36.178Z,984.51
2023-04-01T08:26:36.148Z,984.44
2023-04-01T08:27:36.148Z,984.52
2023-04-01T08:28:36.284Z,984.47
2023-04-01T08:29:36.276Z,984.39
2023-04-01T08:30:36.291Z,984.50
2023-04-01T08:31:36.029Z,984.47
2023-04-01T08:32:36.092Z,984.49
2023-04-01T08:33:36.082Z,984.48
2023-04-01T08:34:36.303Z,984.53
2023-04-01T08:35:38.471Z,984.58
2023-04-01T08:36:35.926Z,984.56
2023-04-01T08:37:36.416Z,984.55
2023-04-01T08:38:36.428Z,984.60
2023-04-01T08:39:36.423Z,984.59
2023-04-01T08:40:35.918Z,984.54
2023-04-01T08:41:36.006Z,984.52
2023-04-01T08:42:36.446Z,984.58
2023-04-01T08:43:35.911Z,984.60
2023-04-01T08:44:35.869Z,984.58
2023-04-01T08:45:36.383Z,984.57
2023-04-01T08:46:36.477Z,984.57
2023-04-01T08:47:36.535Z,984.59
2023-04-01T08:48:36.489Z,984.56
2023-04-01T08:49:35.881Z,984.62
2023-04-01T08:50:35.816Z,984.58
2023-04-01T08:51:36.507Z,984.56
2023-04-01T08:52:35.816Z,984.57
2023-04-01T08:53:35.822Z,984.57
2023-04-01T08:54:35.812Z,984.66
2023-04-01T08:55:35.893Z,984.64
2023-04-01T08:56:36.650Z,984.58
2023-04-01T08:57:35.991Z,984.61
2023-04-01T08:58:35.943Z,984.60
2023-04-01T08:59:35.945Z,984.60
2023-04-01T09:00:36.052Z,984.64
2023-04-01T09:01:35.761Z,984.63
2023-04-01T09:02:35.913Z,984.69
2023-04-01T09:03:35.901Z,984.64
2023-04-01T09:04:35.893Z,984.68
2023-04-01T09:05:35.881Z,984.75
2023-04-01T09:06:35.803Z,984.78
2023-04-01T09:07:35.807Z,984.79
2023-04-01T09:08:35.822Z,984.79
2023-04-01T09:09:36.447Z,984.80
2023-04-01T09:10:36.448Z,984.79
2023-04-01T09:11:36.171Z,984.73
2023-04-01T09:12:36.242Z,984.73
2023-04-01T09:13:36.463Z,984.76
2023-04-01T09:14:36.471Z,984.77
2023-04-01T09:15:36.095Z,984.79
2023-04-01T09:16:35.698Z,984.82
2023-04-01T09:17:35.735Z,984.77
2023-04-01T09:18:35.676Z,984.79
2023-04-01T09:19:35.685Z,984.81
2023-04-01T09:20:35.704Z,984.82
2023-04-01T09:21:35.700Z,984.84
2023-04-01T09:22:35.816Z,984.83
2023-04-01T09:23:35.809Z,984.78
2023-04-01T09:24:35.809Z,984.76
2023-04-01T09:25:36.020Z,984.81
2023-04-01T09:26:35.944Z,984.91
2023-04-01T09:27:35.949Z,984.80
2023-04-01T09:28:35.542Z,984.84
2023-04-01T09:29:35.545Z,984.96
2023-04-01T09:30:35.609Z,984.91
2023-04-01T09:31:35.593Z,984.92
2023-04-01T09:32:35.606Z,984.93
2023-04-01T09:33:35.532Z,984.96
2023-04-01T09:34:35.579Z,984.90
2023-04-01T09:35:35.865Z,984.89
2023-04-01T09:36:35.596Z,984.94
2023-04-01T09:37:35.602Z,984.98
2023-04-01T09:38:35.602Z,984.93
2023-04-01T09:39:35.618Z,985.02
2023-04-01T09:40:35.620Z,984.95
2023-04-01T09:41:35.524Z,984.94
2023-04-01T09:42:35.510Z,984.96
2023-04-01T09:43:35.520Z,984.99
2023-04-01T09:44:35.674Z,984.98
2023-04-01T09:45:35.655Z,984.96
2023-04-01T09:46:35.803Z,985.02
2023-04-01T09:47:35.463Z,985.00
2023-04-01T09:48:35.669Z,985.04
2023-04-01T09:49:35.681Z,985.06
2023-04-01T09:50:35.383Z,984.98
2023-04-01T09:51:35.788Z,984.97
2023-04-01T09:52:35.697Z,984.99
2023-04-01T09:53:35.845Z,984.94
2023-04-01T09:54:35.812Z,984.98
2023-04-01T09:55:35.473Z,985.03
2023-04-01T09:56:35.532Z,985.02
2023-04-01T09:57:35.457Z,985.03
2023-04-01T09:58:35.540Z,984.99
2023-04-01T09:59:35.830Z,985.02
2023-04-01T10:00:35.749Z,985.03
2023-04-01T10:01:35.909Z,985.02
2023-04-01T10:02:35.673Z,985.01
2023-04-01T10:03:35.979Z,985.01
2023-04-01T10:04:35.985Z,985.00
2023-04-01T10:05:36.229Z,985.04
2023-04-01T10:06:35.284Z,985.08
2023-04-01T10:07:35.387Z,985.08
2023-04-01T10:08:35.399Z,985.05
2023-04-01T10:09:35.402Z,985.09
2023-04-01T10:10:35.261Z,985.12
2023-04-01T10:11:35.317Z,985.20
2023-04-01T10:12:35.507Z,985.17
2023-04-01T10:13:35.271Z,985.15
2023-04-01T10:14:35.235Z,985.12
2023-04-01T10:15:35.476Z,985.20
2023-04-01T10:16:35.305Z,985.21
2023-04-01T10:17:35.265Z,985.21
2023-04-01T10:18:35.347Z,985.25
2023-04-01T10:19:35.483Z,985.24
2023-04-01T10:20:35.272Z,985.23
2023-04-01T10:21:35.285Z,985.30
2023-04-01T10:22:35.598Z,985.29
2023-04-01T10:23:35.350Z,985.30
2023-04-01T10:24:35.508Z,985.31
2023-04-01T10:25:35.855Z,985.39
2023-04-01T10:26:35.184Z,985.37
2023-04-01T10:27:35.840Z,985.31
2023-04-01T10:28:35.328Z,985.34
2023-04-01T10:29:35.538Z,985.32
2023-04-01T10:30:35.628Z,985.37
2023-04-01T10:31:35.167Z,985.39
2023-04-01T10:32:35.146Z,985.34
2023-04-01T10:33:35.129Z,985.38
2023-04-01T10:34:35.386Z,985.41
2023-04-01T10:35:35.624Z,985.46
2023-04-01T10:36:35.389Z,985.43
2023-04-01T10:37:35.187Z,985.46
2023-04-01T10:38:36.028Z,985.45
2023-04-01T10:39:35.938Z,985.43
2023-04-01T10:40:35.480Z,985.48
2023-04-01T10:41:35.629Z,985.45
2023-04-01T10:42:35.923Z,985.48
2023-04-01T10:43:35.041Z,985.48
2023-04-01T10:44:35.010Z,985.49
2023-04-01T10:45:35.361Z,985.51
2023-04-01T10:46:35.230Z,985.54
2023-04-01T10:47:35.148Z,985.53
2023-04-01T10:48:35.141Z,985.56
2023-04-01T10:49:35.269Z,985.55
2023-04-01T10:50:35.059Z,985.50
2023-04-01T10:51:35.327Z,985.48
2023-04-01T10:52:35.354Z,985.58
2023-04-01T10:53:35.294Z,985.59
2023-04-01T10:54:34.978Z,985.55
2023-04-01T10:55:35.456Z,985.56
2023-04-01T10:56:34.923Z,985.56
2023-04-01T10:57:35.017Z,985.59
2023-04-01T10:58:34.983Z,985.58
2023-04-01T10:59:35.145Z,985.52
2023-04-01T11:00:35.190Z,985.54
2023-04-01T11:01:35.412Z,985.55
2023-04-01T11:02:35.461Z,985.56
2023-04-01T11:03:34.984Z,985.55
2023-04-01T11:04:35.361Z,985.54
2023-04-01T11:05:35.226Z,985.52
2023-04-01T11:06:35.787Z,985.51
2023-04-01T11:07:35.469Z,985.57
2023-04-01T11:08:34.856Z,985.55
2023-04-01T11:09:34.835Z,985.55
2023-04-01T11:10:34.820Z,985.51
2023-04-01T11:11:34.826Z,985.52
2023-04-01T11:12:35.036Z,985.53
2023-04-01T11:13:35.064Z,985.52
2023-04-01T11:14:34.815Z,985.52
2023-04-01T11:15:35.342Z,985.55
2023-04-01T11:16:35.321Z,985.57
2023-04-01T11:17:35.320Z,985.60
2023-04-01T11:18:35.333Z,985.62
2023-04-01T11:19:35.336Z,985.61
2023-04-01T11:20:35.273Z,985.66
2023-04-01T11:21:34.871Z,985.64
2023-04-01T11:22:34.870Z,985.64
2023-04-01T11:23:34.887Z,985.67
2023-04-01T11:24:34.898Z,985.74
2023-04-01T11:25:35.056Z,985.72
2023-04-01T11:26:34.977Z,985.70
2023-04-01T11:27:35.266Z,985.73
2023-04-01T11:28:35.127Z,985.78
2023-04-01T11:29:34.766Z,985.77
2023-04-01T11:30:34.790Z,985.87
2023-04-01T11:31:35.302Z,985.83
2023-04-01T11:32:35.421Z,985.81
2023-04-01T11:33:35.367Z,985.72
2023-04-01T11:34:34.754Z,985.85
2023-04-01T11:35:35.357Z,985.86
2023-04-01T11:36:34.681Z,985.88
2023-04-01T11:37:35.487Z,985.88
2023-04-01T11:38:35.190Z,985.91
2023-04-01T11:39:35.550Z,985.85
2023-04-01T11:40:35.245Z,985.87
2023-04-01T11:41:34.612Z,985.85
2023-04-01T11:42:35.219Z,985.90
2023-04-01T11:43:35.225Z,985.91
2023-04-01T11:44:35.019Z,985.93
2023-04-01T11:45:35.440Z,985.91
2023-04-01T11:46:35.489Z,985.96
2023-04-01T11:47:34.651Z,985.95
2023-04-01T11:48:35.464Z,985.93
2023-04-01T11:49:35.061Z,985.96
2023-04-01T11:50:35.110Z,986.00
2023-04-01T11:51:34.526Z,986.01
2023-04-01T11:52:34.525Z,986.04
2023-04-01T11:53:34.526Z,986.02
2023-04-01T11:54:34.529Z,986.02
2023-04-01T11:55:34.914Z,986.05
2023-04-01T11:56:34.542Z,986.06
2023-04-01T11:57:34.559Z,986.05
2023-04-01T11:58:34.546Z,986.05
2023-04-01T11:59:34.480Z,986.07
2023-04-01T12:00:34.463Z,986.10
2023-04-01T12:01:34.546Z,986.04
2023-04-01T12:02:34.610Z,986.09
2023-04-01T12:03:34.542Z,986.14
2023-04-01T12:04:34.461Z,986.07
2023-04-01T12:05:34.825Z,986.12
2023-04-01T12:06:34.693Z,986.07
2023-04-01T12:07:34.718Z,986.14
2023-04-01T12:08:34.736Z,986.11
2023-04-01T12:09:34.412Z,986.14
2023-04-01T12:10:34.757Z,986.13
2023-04-01T12:11:34.758Z,986.15
2023-04-01T12:12:34.775Z,986.12
2023-04-01T12:13:34.376Z,986.12
2023-04-01T12:14:34.385Z,986.15
2023-04-01T12:15:35.287Z,986.25
2023-04-01T12:16:34.853Z,986.16
2023-04-01T12:17:34.876Z,986.14
2023-04-01T12:18:34.329Z,986.14
2023-04-01T12:19:34.332Z,986.15
2023-04-01T12:20:34.339Z,986.15
2023-04-01T12:21:34.311Z,986.19
2023-04-01T12:22:34.297Z,986.16
2023-04-01T12:23:34.309Z,986.15
2023-04-01T12:24:34.297Z,986.15
2023-04-01T12:25:34.516Z,986.15
2023-04-01T12:26:34.294Z,986.19
2023-04-01T12:27:34.268Z,986.15
2023-04-01T12:28:34.306Z,986.22